createdAt,value
2023-02-20T00:01:30.827Z,5.98
2023-02-20T00:06:38.164Z,7.50
2023-02-20T00:11:45.328Z,5.78
2023-02-20T00:16:53.462Z,5.37
2023-02-20T00:21:59.675Z,5.98
2023-02-20T00:27:07.323Z,5.98
2023-02-20T00:32:13.491Z,5.98
2023-02-20T00:37:20.249Z,6.08
2023-02-20T00:42:26.504Z,5.98
2023-02-20T00:47:33.132Z,6.39
2023-02-20T00:52:39.386Z,10.34
2023-02-20T00:57:46.138Z,6.90
2023-02-20T01:02:53.362Z,4.66
2023-02-20T01:08:02.467Z,5.98
2023-02-20T01:13:10.588Z,7.40
2023-02-20T01:18:16.858Z,6.79
2023-02-20T01:23:23.087Z,6.39
2023-02-20T01:28:29.769Z,5.98
2023-02-20T01:33:38.667Z,6.49
2023-02-20T01:38:45.267Z,6.08
2023-02-20T01:43:51.673Z,6.08
2023-02-20T01:48:59.332Z,6.08
2023-02-20T01:54:05.401Z,9.94
2023-02-20T01:59:12.042Z,5.78
2023-02-20T02:04:18.816Z,5.98
2023-02-20T02:09:25.254Z,9.43
2023-02-20T02:14:31.537Z,8.72
2023-02-20T02:19:38.164Z,8.31
2023-02-20T02:24:44.451Z,9.33
2023-02-20T02:29:50.915Z,11.56
2023-02-20T02:34:58.129Z,7.40
2023-02-20T02:40:05.114Z,6.59
2023-02-20T02:45:11.285Z,5.98
2023-02-20T02:50:18.046Z,6.49
2023-02-20T02:55:24.106Z,7.20
2023-02-20T03:00:31.806Z,5.98
2023-02-20T03:05:39.203Z,6.08
2023-02-20T03:10:45.945Z,10.24
2023-02-20T03:15:53.327Z,5.48
2023-02-20T03:21:00.168Z,6.59
2023-02-20T03:26:06.420Z,10.04
2023-02-20T03:31:14.253Z,7.20
2023-02-20T03:36:22.163Z,6.59
2023-02-20T03:41:28.783Z,8.42
2023-02-20T03:46:41.873Z,6.39
2023-02-20T03:51:38.261Z,9.13
2023-02-20T03:56:44.586Z,11.56
2023-02-20T04:01:50.704Z,8.42
2023-02-20T04:06:57.765Z,9.53
2023-02-20T04:12:03.862Z,11.76
2023-02-20T04:17:11.225Z,8.62
2023-02-20T04:22:17.734Z,9.23
2023-02-20T04:27:24.380Z,9.43
2023-02-20T04:32:30.559Z,9.94
2023-02-20T04:37:37.375Z,8.62
2023-02-20T04:42:43.445Z,8.62
2023-02-20T04:47:51.086Z,10.95
2023-02-20T04:52:59.284Z,11.15
2023-02-20T04:58:05.793Z,7.50
2023-02-20T05:03:11.828Z,10.75
2023-02-20T05:08:19.757Z,8.21
2023-02-20T05:13:25.906Z,9.02
2023-02-20T05:18:32.266Z,5.98
2023-02-20T05:23:56.682Z,9.94
2023-02-20T05:28:44.455Z,9.23
2023-02-20T05:33:52.548Z,8.42
2023-02-20T05:38:59.598Z,11.76
2023-02-20T05:44:08.881Z,5.98
2023-02-20T05:49:15.316Z,9.63
2023-02-20T05:54:22.305Z,9.43
2023-02-20T05:59:29.035Z,7.81
2023-02-20T06:04:36.638Z,10.55
2023-02-20T06:09:43.307Z,9.33
2023-02-20T06:14:49.490Z,9.33
2023-02-20T06:19:57.360Z,11.36
2023-02-20T06:25:03.746Z,10.44
2023-02-20T06:30:10.414Z,11.36
2023-02-20T06:35:16.593Z,7.20
2023-02-20T06:40:23.263Z,7.20
2023-02-20T06:45:29.351Z,8.11
2023-02-20T06:50:35.710Z,10.04
2023-02-20T06:55:41.882Z,5.98
2023-02-20T07:00:48.310Z,9.94
2023-02-20T07:05:54.557Z,10.65
2023-02-20T07:11:01.175Z,10.34
2023-02-20T07:16:07.358Z,9.73
2023-02-20T07:21:13.753Z,6.08
2023-02-20T07:26:20.062Z,10.24
2023-02-20T07:31:26.476Z,6.79
2023-02-20T07:36:33.922Z,7.81
2023-02-20T07:41:40.803Z,7.81
2023-02-20T07:46:48.144Z,10.75
2023-02-20T07:51:54.817Z,6.08
2023-02-20T07:57:01.416Z,6.79
2023-02-20T08:02:08.764Z,11.66
2023-02-20T08:07:18.110Z,5.07
2023-02-20T08:12:16.306Z,5.98
2023-02-20T08:17:20.821Z,7.40
2023-02-20T08:22:39.967Z,9.02
2023-02-20T08:27:33.807Z,6.29
2023-02-20T08:32:40.117Z,6.19
2023-02-20T08:37:46.551Z,5.78
2023-02-20T08:42:52.678Z,7.00
2023-02-20T08:47:59.407Z,5.58
2023-02-20T08:53:05.899Z,5.88
2023-02-20T08:58:12.582Z,9.43
2023-02-20T09:03:18.626Z,5.37
2023-02-20T09:08:26.061Z,10.14
2023-02-20T09:13:32.318Z,6.49
2023-02-20T09:18:38.933Z,5.78
2023-02-20T09:23:44.977Z,5.58
2023-02-20T09:28:51.739Z,11.46
2023-02-20T09:33:57.979Z,5.58
2023-02-20T09:39:04.687Z,5.48
2023-02-20T09:44:10.837Z,5.88
2023-02-20T09:49:18.525Z,9.53
2023-02-20T09:54:25.747Z,6.29
2023-02-20T09:59:32.636Z,6.49
2023-02-20T10:04:42.008Z,5.78
2023-02-20T10:09:46.082Z,5.68
2023-02-20T10:14:52.250Z,6.49
2023-02-20T10:20:01.020Z,5.17
2023-02-20T10:25:07.181Z,3.55
2023-02-20T10:30:14.025Z,5.07
2023-02-20T10:35:20.072Z,5.07
2023-02-20T10:40:30.266Z,5.88
2023-02-20T10:45:26.323Z,6.08
2023-02-20T10:50:50.647Z,4.97
2023-02-20T10:55:40.690Z,3.04
2023-02-20T11:00:36.932Z,0.10
2023-02-20T11:05:45.217Z,3.65
2023-02-20T11:10:54.177Z,1.12
2023-02-20T11:16:00.783Z,5.98
2023-02-20T11:21:07.515Z,2.13
2023-02-20T11:26:18.999Z,0.41
2023-02-20T11:31:15.512Z,3.85
2023-02-20T11:36:22.082Z,2.94
2023-02-20T11:41:28.333Z,5.78
2023-02-20T11:46:35.020Z,3.55
2023-02-20T11:51:41.141Z,3.14
2023-02-20T11:56:47.708Z,1.62
2023-02-20T12:02:01.142Z,3.04
2023-02-20T12:07:02.197Z,2.68
2023-02-20T12:12:10.169Z,4.06
2023-02-20T12:17:23.358Z,1.75
2023-02-20T12:22:21.049Z,3.61
2023-02-20T12:27:28.734Z,4.26
2023-02-20T12:32:36.091Z,0.00
2023-02-20T12:37:42.768Z,1.00
2023-02-20T12:42:51.937Z,3.85
2023-02-20T12:47:59.069Z,3.63
2023-02-20T12:53:05.454Z,0.78
2023-02-20T12:58:16.386Z,1.09
2023-02-20T13:03:12.570Z,1.77
2023-02-20T13:08:22.835Z,2.65
2023-02-20T13:13:20.158Z,1.66
2023-02-20T13:18:25.340Z,4.89
2023-02-20T13:23:32.468Z,1.96
2023-02-20T13:28:38.785Z,5.37
2023-02-20T13:33:45.761Z,5.98
2023-02-20T13:38:53.309Z,2.39
2023-02-20T13:43:59.988Z,3.17
2023-02-20T13:49:06.670Z,5.47
2023-02-20T13:54:23.224Z,3.45
2023-02-20T13:59:19.655Z,3.82
2023-02-20T14:04:26.280Z,2.55
2023-02-20T14:09:33.713Z,5.51
2023-02-20T14:14:43.515Z,2.20
2023-02-20T14:19:50.050Z,0.00
2023-02-20T14:24:56.707Z,4.29
2023-02-20T14:30:04.209Z,1.88
2023-02-20T14:35:12.548Z,1.62
2023-02-20T14:40:17.221Z,0.39
2023-02-20T14:45:23.990Z,0.00
2023-02-20T14:50:31.468Z,0.00
2023-02-20T14:55:38.476Z,1.25
2023-02-20T15:00:44.897Z,2.15
2023-02-20T15:05:51.524Z,2.43
2023-02-20T15:10:58.248Z,0.30
2023-02-20T15:16:04.717Z,0.75
2023-02-20T15:21:13.326Z,1.22
2023-02-20T15:26:21.357Z,1.10
2023-02-20T15:31:27.901Z,5.87
2023-02-20T15:36:35.629Z,2.67
2023-02-20T15:41:42.252Z,2.88
2023-02-20T15:46:49.267Z,2.67
2023-02-20T15:52:07.870Z,1.00
2023-02-20T15:57:04.271Z,4.21
2023-02-20T16:02:12.088Z,1.34
2023-02-20T16:07:19.062Z,4.14
2023-02-20T16:12:25.385Z,2.18
2023-02-20T16:17:33.101Z,2.72
2023-02-20T16:22:39.577Z,0.00
2023-02-20T16:27:46.572Z,1.47
2023-02-20T16:32:52.952Z,0.62
2023-02-20T16:38:01.910Z,1.52
2023-02-20T16:43:08.429Z,3.35
2023-02-20T16:48:15.377Z,1.52
2023-02-20T16:53:24.416Z,2.27
2023-02-20T16:58:31.284Z,1.24
2023-02-20T17:03:37.903Z,0.00
2023-02-20T17:08:44.446Z,4.06
2023-02-20T17:13:51.989Z,4.06
2023-02-20T17:19:00.011Z,3.55
2023-02-20T17:24:06.409Z,2.23
2023-02-20T17:29:13.281Z,3.04
2023-02-20T17:34:19.707Z,4.97
2023-02-20T17:39:26.402Z,3.65
2023-02-20T17:44:33.049Z,2.43
2023-02-20T17:49:41.312Z,5.58
2023-02-20T17:54:45.443Z,2.94
2023-02-20T17:59:52.730Z,6.29
2023-02-20T18:04:59.167Z,2.74
2023-02-20T18:10:06.057Z,5.98
2023-02-20T18:15:12.504Z,4.36
2023-02-20T18:20:21.541Z,5.37
2023-02-20T18:25:39.500Z,3.65
2023-02-20T18:30:34.050Z,5.68
2023-02-20T18:35:40.165Z,5.17
2023-02-20T18:40:56.555Z,5.37
2023-02-20T18:45:54.802Z,6.49
2023-02-20T18:51:05.412Z,3.55
2023-02-20T18:56:03.696Z,5.17
2023-02-20T19:01:10.258Z,5.17
2023-02-20T19:06:16.520Z,5.37
2023-02-20T19:11:22.972Z,6.19
2023-02-20T19:16:31.459Z,3.65
2023-02-20T19:21:38.201Z,5.88
2023-02-20T19:26:44.903Z,5.37
2023-02-20T19:31:51.799Z,5.88
2023-02-20T19:36:59.174Z,5.98
2023-02-20T19:42:05.879Z,6.69
2023-02-20T19:47:12.380Z,4.46
2023-02-20T19:52:19.339Z,5.37
2023-02-20T19:57:25.579Z,6.19
2023-02-20T20:02:32.699Z,5.78
2023-02-20T20:07:39.850Z,3.65
2023-02-20T20:12:46.828Z,5.58
2023-02-20T20:17:52.993Z,5.98
2023-02-20T20:22:59.593Z,5.68
2023-02-20T20:28:06.321Z,6.79
2023-02-20T20:33:15.921Z,6.69
2023-02-20T20:38:21.709Z,5.88
2023-02-20T20:43:29.173Z,4.06
2023-02-20T20:48:35.744Z,4.97
2023-02-20T20:53:43.256Z,5.98
2023-02-20T20:58:50.436Z,7.10
2023-02-20T21:03:59.073Z,6.79
2023-02-20T21:09:05.456Z,5.88
2023-02-20T21:14:12.546Z,5.98
2023-02-20T21:19:24.692Z,5.98
2023-02-20T21:24:21.377Z,6.29
2023-02-20T21:29:27.864Z,9.63
2023-02-20T21:34:34.538Z,10.55
2023-02-20T21:39:40.927Z,7.20
2023-02-20T21:44:49.481Z,6.08
2023-02-20T21:49:56.148Z,5.37
2023-02-20T21:55:03.776Z,5.98
2023-02-20T22:00:10.089Z,7.91
2023-02-20T22:05:16.568Z,8.11
2023-02-20T22:10:24.206Z,6.69
2023-02-20T22:15:30.859Z,9.23
2023-02-20T22:20:37.458Z,7.20
2023-02-20T22:25:45.415Z,8.82
2023-02-20T22:30:54.255Z,5.68
2023-02-20T22:35:58.283Z,8.42
2023-02-20T22:41:04.847Z,6.29
2023-02-20T22:46:11.354Z,6.08
2023-02-20T22:51:18.301Z,5.98
2023-02-20T22:56:25.225Z,5.88
2023-02-20T23:01:31.792Z,3.85
2023-02-20T23:06:38.594Z,6.79
2023-02-20T23:11:45.515Z,4.46
2023-02-20T23:16:52.455Z,5.98
2023-02-20T23:21:59.876Z,6.08
2023-02-20T23:27:06.525Z,9.02
2023-02-20T23:32:13.178Z,5.88
2023-02-20T23:37:20.590Z,5.88
2023-02-20T23:42:26.848Z,6.90
2023-02-20T23:47:33.495Z,6.29
2023-02-20T23:52:40.177Z,6.29
2023-02-20T23:57:49.370Z,1.62
